sensor_id;sensor_type;location;lat;lon;timestamp;P1;durP1;ratioP1;P2;durP2;ratioP2
55069;SDS011;40967;52.070;8.596;2023-07-16T00:00:51;0.77;;;0.40;;
55069;SDS011;40967;52.070;8.596;2023-07-16T00:03:16;0.88;;;0.45;;
55069;SDS011;40967;52.070;8.596;2023-07-16T00:05:42;1.50;;;0.67;;
55069;SDS011;40967;52.070;8.596;2023-07-16T00:08:07;1.27;;;0.70;;
55069;SDS011;40967;52.070;8.596;2023-07-16T00:10:34;1.20;;;0.67;;
55069;SDS011;40967;52.070;8.596;2023-07-16T00:13:00;1.20;;;0.60;;
55069;SDS011;40967;52.070;8.596;2023-07-16T00:15:26;1.67;;;0.70;;
55069;SDS011;40967;52.070;8.596;2023-07-16T00:17:51;1.40;;;0.70;;
55069;SDS011;40967;52.070;8.596;2023-07-16T00:20:16;1.30;;;0.60;;
55069;SDS011;40967;52.070;8.596;2023-07-16T00:22:42;1.03;;;0.60;;
55069;SDS011;40967;52.070;8.596;2023-07-16T00:25:07;0.60;;;0.43;;
55069;SDS011;40967;52.070;8.596;2023-07-16T00:27:33;2.10;;;0.70;;
55069;SDS011;40967;52.070;8.596;2023-07-16T00:29:58;1.20;;;0.47;;
55069;SDS011;40967;52.070;8.596;2023-07-16T00:32:23;1.80;;;1.00;;
55069;SDS011;40967;52.070;8.596;2023-07-16T00:34:49;2.00;;;0.90;;
55069;SDS011;40967;52.070;8.596;2023-07-16T00:37:15;1.58;;;0.88;;
55069;SDS011;40967;52.070;8.596;2023-07-16T00:39:40;1.40;;;0.70;;
55069;SDS011;40967;52.070;8.596;2023-07-16T00:42:05;1.17;;;0.60;;
55069;SDS011;40967;52.070;8.596;2023-07-16T00:44:31;0.97;;;0.53;;
55069;SDS011;40967;52.070;8.596;2023-07-16T00:46:56;1.13;;;0.60;;
55069;SDS011;40967;52.070;8.596;2023-07-16T00:49:22;2.60;;;0.83;;
55069;SDS011;40967;52.070;8.596;2023-07-16T00:51:49;2.10;;;0.80;;
55069;SDS011;40967;52.070;8.596;2023-07-16T00:54:17;1.35;;;0.73;;
55069;SDS011;40967;52.070;8.596;2023-07-16T00:56:42;2.27;;;0.90;;
55069;SDS011;40967;52.070;8.596;2023-07-16T00:59:08;2.50;;;0.80;;
55069;SDS011;40967;52.070;8.596;2023-07-16T01:01:33;1.08;;;0.60;;
55069;SDS011;40967;52.070;8.596;2023-07-16T01:03:59;2.00;;;0.90;;
55069;SDS011;40967;52.070;8.596;2023-07-16T01:06:33;1.30;;;0.77;;
55069;SDS011;40967;52.070;8.596;2023-07-16T01:09:07;1.20;;;0.60;;
55069;SDS011;40967;52.070;8.596;2023-07-16T01:11:41;1.35;;;0.60;;
55069;SDS011;40967;52.070;8.596;2023-07-16T01:14:08;1.20;;;0.60;;
55069;SDS011;40967;52.070;8.596;2023-07-16T01:16:33;1.77;;;0.75;;
55069;SDS011;40967;52.070;8.596;2023-07-16T01:18:59;2.63;;;1.20;;
55069;SDS011;40967;52.070;8.596;2023-07-16T01:21:24;2.27;;;1.10;;
55069;SDS011;40967;52.070;8.596;2023-07-16T01:24:00;2.15;;;0.93;;
55069;SDS011;40967;52.070;8.596;2023-07-16T01:29:44;3.05;;;1.15;;
55069;SDS011;40967;52.070;8.596;2023-07-16T01:32:11;1.77;;;0.87;;
55069;SDS011;40967;52.070;8.596;2023-07-16T01:34:46;2.65;;;1.00;;
55069;SDS011;40967;52.070;8.596;2023-07-16T01:37:12;2.20;;;0.80;;
55069;SDS011;40967;52.070;8.596;2023-07-16T01:39:37;3.47;;;1.03;;
55069;SDS011;40967;52.070;8.596;2023-07-16T01:42:03;1.87;;;0.97;;
55069;SDS011;40967;52.070;8.596;2023-07-16T01:44:28;1.97;;;0.73;;
55069;SDS011;40967;52.070;8.596;2023-07-16T01:49:34;2.25;;;0.95;;
55069;SDS011;40967;52.070;8.596;2023-07-16T01:52:00;2.80;;;1.10;;
55069;SDS011;40967;52.070;8.596;2023-07-16T01:54:26;2.33;;;1.10;;
55069;SDS011;40967;52.070;8.596;2023-07-16T01:56:51;1.40;;;0.73;;
55069;SDS011;40967;52.070;8.596;2023-07-16T01:59:17;2.30;;;0.90;;
55069;SDS011;40967;52.070;8.596;2023-07-16T02:01:42;2.77;;;1.07;;
55069;SDS011;40967;52.070;8.596;2023-07-16T02:04:07;1.63;;;0.60;;
55069;SDS011;40967;52.070;8.596;2023-07-16T02:06:33;1.30;;;0.67;;
55069;SDS011;40967;52.070;8.596;2023-07-16T02:08:58;1.67;;;0.80;;
55069;SDS011;40967;52.070;8.596;2023-07-16T02:11:23;0.83;;;0.50;;
55069;SDS011;40967;52.070;8.596;2023-07-16T02:13:48;1.00;;;0.50;;
55069;SDS011;40967;52.070;8.596;2023-07-16T02:16:14;1.63;;;0.63;;
55069;SDS011;40967;52.070;8.596;2023-07-16T02:18:39;1.15;;;0.55;;
55069;SDS011;40967;52.070;8.596;2023-07-16T02:21:04;1.00;;;0.60;;
55069;SDS011;40967;52.070;8.596;2023-07-16T02:23:30;1.13;;;0.60;;
55069;SDS011;40967;52.070;8.596;2023-07-16T02:25:55;1.10;;;0.60;;
55069;SDS011;40967;52.070;8.596;2023-07-16T02:28:20;1.30;;;0.70;;
55069;SDS011;40967;52.070;8.596;2023-07-16T02:30:46;1.17;;;0.60;;
55069;SDS011;40967;52.070;8.596;2023-07-16T02:33:11;1.63;;;0.70;;
55069;SDS011;40967;52.070;8.596;2023-07-16T02:35:36;1.97;;;0.70;;
55069;SDS011;40967;52.070;8.596;2023-07-16T02:38:02;2.27;;;1.00;;
55069;SDS011;40967;52.070;8.596;2023-07-16T02:40:27;3.10;;;1.10;;
55069;SDS011;40967;52.070;8.596;2023-07-16T02:42:52;2.33;;;1.00;;
55069;SDS011;40967;52.070;8.596;2023-07-16T02:45:17;3.10;;;1.10;;
55069;SDS011;40967;52.070;8.596;2023-07-16T02:47:43;3.63;;;1.17;;
55069;SDS011;40967;52.070;8.596;2023-07-16T02:50:08;4.00;;;1.30;;
55069;SDS011;40967;52.070;8.596;2023-07-16T02:52:34;2.50;;;1.17;;
55069;SDS011;40967;52.070;8.596;2023-07-16T02:54:59;2.17;;;1.00;;
55069;SDS011;40967;52.070;8.596;2023-07-16T02:57:25;1.80;;;0.87;;
55069;SDS011;40967;52.070;8.596;2023-07-16T02:59:50;2.10;;;0.90;;
55069;SDS011;40967;52.070;8.596;2023-07-16T03:02:15;2.03;;;0.90;;
55069;SDS011;40967;52.070;8.596;2023-07-16T03:04:41;2.43;;;0.83;;
55069;SDS011;40967;52.070;8.596;2023-07-16T03:07:06;2.33;;;1.00;;
55069;SDS011;40967;52.070;8.596;2023-07-16T03:09:32;1.63;;;0.80;;
55069;SDS011;40967;52.070;8.596;2023-07-16T03:11:57;1.30;;;0.70;;
55069;SDS011;40967;52.070;8.596;2023-07-16T03:14:22;1.87;;;0.80;;
55069;SDS011;40967;52.070;8.596;2023-07-16T03:16:48;1.77;;;0.80;;
55069;SDS011;40967;52.070;8.596;2023-07-16T03:19:13;1.73;;;0.70;;
55069;SDS011;40967;52.070;8.596;2023-07-16T03:21:38;1.47;;;0.77;;
55069;SDS011;40967;52.070;8.596;2023-07-16T03:24:04;2.67;;;1.00;;
55069;SDS011;40967;52.070;8.596;2023-07-16T03:26:29;2.20;;;0.93;;
55069;SDS011;40967;52.070;8.596;2023-07-16T03:28:55;2.30;;;0.90;;
55069;SDS011;40967;52.070;8.596;2023-07-16T03:31:20;2.30;;;0.90;;
55069;SDS011;40967;52.070;8.596;2023-07-16T03:33:46;1.80;;;0.70;;
55069;SDS011;40967;52.070;8.596;2023-07-16T03:36:11;1.95;;;1.00;;
55069;SDS011;40967;52.070;8.596;2023-07-16T03:38:36;1.50;;;0.80;;
55069;SDS011;40967;52.070;8.596;2023-07-16T03:41:02;1.60;;;0.80;;
55069;SDS011;40967;52.070;8.596;2023-07-16T03:43:27;2.27;;;1.17;;
55069;SDS011;40967;52.070;8.596;2023-07-16T03:45:52;2.83;;;1.23;;
55069;SDS011;40967;52.070;8.596;2023-07-16T03:48:18;2.33;;;1.33;;
55069;SDS011;40967;52.070;8.596;2023-07-16T03:50:43;2.43;;;1.00;;
55069;SDS011;40967;52.070;8.596;2023-07-16T03:53:08;1.50;;;1.00;;
55069;SDS011;40967;52.070;8.596;2023-07-16T03:55:34;1.63;;;0.90;;
55069;SDS011;40967;52.070;8.596;2023-07-16T03:57:59;3.83;;;1.20;;
55069;SDS011;40967;52.070;8.596;2023-07-16T04:00:25;2.77;;;1.13;;
55069;SDS011;40967;52.070;8.596;2023-07-16T04:02:50;1.93;;;0.93;;
55069;SDS011;40967;52.070;8.596;2023-07-16T04:05:15;1.53;;;0.83;;
55069;SDS011;40967;52.070;8.596;2023-07-16T04:07:41;2.80;;;0.93;;
55069;SDS011;40967;52.070;8.596;2023-07-16T04:10:06;1.30;;;0.70;;
55069;SDS011;40967;52.070;8.596;2023-07-16T04:12:32;1.48;;;0.70;;
55069;SDS011;40967;52.070;8.596;2023-07-16T04:14:58;1.10;;;0.70;;
55069;SDS011;40967;52.070;8.596;2023-07-16T04:17:24;1.23;;;0.63;;
55069;SDS011;40967;52.070;8.596;2023-07-16T04:19:49;1.33;;;0.80;;
55069;SDS011;40967;52.070;8.596;2023-07-16T04:22:15;1.90;;;0.80;;
55069;SDS011;40967;52.070;8.596;2023-07-16T04:24:40;2.47;;;0.83;;
55069;SDS011;40967;52.070;8.596;2023-07-16T04:27:06;2.30;;;1.10;;
55069;SDS011;40967;52.070;8.596;2023-07-16T04:29:31;4.30;;;1.40;;
55069;SDS011;40967;52.070;8.596;2023-07-16T04:31:56;2.33;;;1.00;;
55069;SDS011;40967;52.070;8.596;2023-07-16T04:34:21;2.33;;;1.00;;
55069;SDS011;40967;52.070;8.596;2023-07-16T04:36:47;1.93;;;1.00;;
55069;SDS011;40967;52.070;8.596;2023-07-16T04:39:12;1.60;;;0.80;;
55069;SDS011;40967;52.070;8.596;2023-07-16T04:41:37;2.07;;;0.90;;
55069;SDS011;40967;52.070;8.596;2023-07-16T04:44:03;2.13;;;0.90;;
55069;SDS011;40967;52.070;8.596;2023-07-16T04:46:29;1.97;;;0.73;;
55069;SDS011;40967;52.070;8.596;2023-07-16T04:48:55;4.45;;;1.27;;
55069;SDS011;40967;52.070;8.596;2023-07-16T04:51:20;2.40;;;1.00;;
55069;SDS011;40967;52.070;8.596;2023-07-16T04:53:46;1.43;;;0.70;;
55069;SDS011;40967;52.070;8.596;2023-07-16T04:56:14;2.20;;;0.90;;
55069;SDS011;40967;52.070;8.596;2023-07-16T04:58:41;1.05;;;0.60;;
55069;SDS011;40967;52.070;8.596;2023-07-16T05:01:07;1.83;;;0.93;;
55069;SDS011;40967;52.070;8.596;2023-07-16T05:03:33;1.63;;;0.80;;
55069;SDS011;40967;52.070;8.596;2023-07-16T05:05:58;0.93;;;0.53;;
55069;SDS011;40967;52.070;8.596;2023-07-16T05:08:24;2.07;;;0.90;;
55069;SDS011;40967;52.070;8.596;2023-07-16T05:10:49;1.30;;;0.80;;
55069;SDS011;40967;52.070;8.596;2023-07-16T05:13:14;1.00;;;0.50;;
55069;SDS011;40967;52.070;8.596;2023-07-16T05:15:40;1.00;;;0.60;;
55069;SDS011;40967;52.070;8.596;2023-07-16T05:18:05;1.00;;;0.60;;
55069;SDS011;40967;52.070;8.596;2023-07-16T05:20:31;2.40;;;0.90;;
55069;SDS011;40967;52.070;8.596;2023-07-16T05:22:56;3.60;;;1.20;;
55069;SDS011;40967;52.070;8.596;2023-07-16T05:25:21;2.40;;;1.10;;
55069;SDS011;40967;52.070;8.596;2023-07-16T05:27:47;1.33;;;0.77;;
55069;SDS011;40967;52.070;8.596;2023-07-16T05:30:12;2.17;;;0.80;;
55069;SDS011;40967;52.070;8.596;2023-07-16T05:32:37;1.48;;;0.60;;
55069;SDS011;40967;52.070;8.596;2023-07-16T05:35:03;1.67;;;0.80;;
55069;SDS011;40967;52.070;8.596;2023-07-16T05:37:29;0.95;;;0.60;;
55069;SDS011;40967;52.070;8.596;2023-07-16T05:39:54;1.75;;;0.73;;
55069;SDS011;40967;52.070;8.596;2023-07-16T05:42:20;2.10;;;0.77;;
55069;SDS011;40967;52.070;8.596;2023-07-16T05:44:47;1.97;;;0.90;;
55069;SDS011;40967;52.070;8.596;2023-07-16T05:47:12;3.50;;;1.10;;
55069;SDS011;40967;52.070;8.596;2023-07-16T05:49:38;5.63;;;1.70;;
55069;SDS011;40967;52.070;8.596;2023-07-16T05:52:03;2.43;;;1.10;;
55069;SDS011;40967;52.070;8.596;2023-07-16T05:54:29;5.47;;;1.80;;
55069;SDS011;40967;52.070;8.596;2023-07-16T05:56:54;4.73;;;1.60;;
55069;SDS011;40967;52.070;8.596;2023-07-16T05:59:20;3.10;;;1.23;;
55069;SDS011;40967;52.070;8.596;2023-07-16T06:01:45;3.00;;;1.30;;
55069;SDS011;40967;52.070;8.596;2023-07-16T06:04:10;3.03;;;1.33;;
55069;SDS011;40967;52.070;8.596;2023-07-16T06:06:36;3.92;;;1.50;;
55069;SDS011;40967;52.070;8.596;2023-07-16T06:09:01;3.17;;;1.48;;
55069;SDS011;40967;52.070;8.596;2023-07-16T06:11:26;3.77;;;1.50;;
55069;SDS011;40967;52.070;8.596;2023-07-16T06:13:55;4.10;;;1.43;;
55069;SDS011;40967;52.070;8.596;2023-07-16T06:16:20;3.70;;;1.30;;
55069;SDS011;40967;52.070;8.596;2023-07-16T06:18:46;4.13;;;1.77;;
55069;SDS011;40967;52.070;8.596;2023-07-16T06:21:11;4.33;;;1.73;;
55069;SDS011;40967;52.070;8.596;2023-07-16T06:23:36;6.27;;;2.50;;
55069;SDS011;40967;52.070;8.596;2023-07-16T06:26:03;5.75;;;2.42;;
55069;SDS011;40967;52.070;8.596;2023-07-16T06:28:28;4.80;;;2.20;;
55069;SDS011;40967;52.070;8.596;2023-07-16T06:30:53;4.05;;;1.75;;
55069;SDS011;40967;52.070;8.596;2023-07-16T06:33:19;3.80;;;1.70;;
55069;SDS011;40967;52.070;8.596;2023-07-16T06:35:45;5.60;;;2.22;;
55069;SDS011;40967;52.070;8.596;2023-07-16T06:38:12;7.65;;;2.58;;
55069;SDS011;40967;52.070;8.596;2023-07-16T06:40:38;6.13;;;2.50;;
55069;SDS011;40967;52.070;8.596;2023-07-16T06:43:03;5.07;;;2.00;;
55069;SDS011;40967;52.070;8.596;2023-07-16T06:45:28;5.33;;;2.07;;
55069;SDS011;40967;52.070;8.596;2023-07-16T06:47:54;4.50;;;2.00;;
55069;SDS011;40967;52.070;8.596;2023-07-16T06:50:19;3.23;;;1.60;;
55069;SDS011;40967;52.070;8.596;2023-07-16T06:52:44;5.43;;;2.37;;
55069;SDS011;40967;52.070;8.596;2023-07-16T06:55:09;3.57;;;1.67;;
55069;SDS011;40967;52.070;8.596;2023-07-16T06:57:35;4.50;;;1.90;;
55069;SDS011;40967;52.070;8.596;2023-07-16T07:00:00;4.57;;;1.93;;
55069;SDS011;40967;52.070;8.596;2023-07-16T07:02:26;4.07;;;1.60;;
55069;SDS011;40967;52.070;8.596;2023-07-16T07:04:51;4.67;;;1.93;;
55069;SDS011;40967;52.070;8.596;2023-07-16T07:07:17;5.97;;;1.90;;
55069;SDS011;40967;52.070;8.596;2023-07-16T07:09:42;4.20;;;1.60;;
55069;SDS011;40967;52.070;8.596;2023-07-16T07:12:08;4.27;;;1.60;;
55069;SDS011;40967;52.070;8.596;2023-07-16T07:14:33;3.43;;;1.40;;
55069;SDS011;40967;52.070;8.596;2023-07-16T07:16:58;3.73;;;1.67;;
55069;SDS011;40967;52.070;8.596;2023-07-16T07:19:27;4.13;;;1.80;;
55069;SDS011;40967;52.070;8.596;2023-07-16T07:21:52;5.63;;;2.20;;
55069;SDS011;40967;52.070;8.596;2023-07-16T07:24:17;3.50;;;1.60;;
55069;SDS011;40967;52.070;8.596;2023-07-16T07:26:43;3.87;;;1.40;;
55069;SDS011;40967;52.070;8.596;2023-07-16T07:29:08;4.43;;;2.10;;
55069;SDS011;40967;52.070;8.596;2023-07-16T07:31:33;6.27;;;2.23;;
55069;SDS011;40967;52.070;8.596;2023-07-16T07:33:58;5.37;;;2.20;;
55069;SDS011;40967;52.070;8.596;2023-07-16T07:36:24;5.77;;;2.50;;
55069;SDS011;40967;52.070;8.596;2023-07-16T07:38:49;4.37;;;2.00;;
55069;SDS011;40967;52.070;8.596;2023-07-16T07:41:15;4.37;;;2.07;;
55069;SDS011;40967;52.070;8.596;2023-07-16T07:43:40;5.87;;;2.63;;
55069;SDS011;40967;52.070;8.596;2023-07-16T07:46:06;4.97;;;2.10;;
55069;SDS011;40967;52.070;8.596;2023-07-16T07:48:31;5.00;;;2.10;;
55069;SDS011;40967;52.070;8.596;2023-07-16T07:50:57;7.78;;;2.22;;
55069;SDS011;40967;52.070;8.596;2023-07-16T07:53:22;4.17;;;1.70;;
55069;SDS011;40967;52.070;8.596;2023-07-16T07:55:48;4.27;;;2.00;;
55069;SDS011;40967;52.070;8.596;2023-07-16T07:58:13;3.77;;;1.63;;
55069;SDS011;40967;52.070;8.596;2023-07-16T08:00:41;2.90;;;1.33;;
55069;SDS011;40967;52.070;8.596;2023-07-16T08:03:06;5.27;;;1.80;;
55069;SDS011;40967;52.070;8.596;2023-07-16T08:05:32;5.30;;;2.10;;
55069;SDS011;40967;52.070;8.596;2023-07-16T08:07:58;5.53;;;2.25;;
55069;SDS011;40967;52.070;8.596;2023-07-16T08:10:24;7.03;;;2.90;;
55069;SDS011;40967;52.070;8.596;2023-07-16T08:12:49;4.77;;;2.10;;
55069;SDS011;40967;52.070;8.596;2023-07-16T08:15:14;5.70;;;2.30;;
55069;SDS011;40967;52.070;8.596;2023-07-16T08:17:41;4.53;;;2.33;;
55069;SDS011;40967;52.070;8.596;2023-07-16T08:20:07;5.57;;;2.33;;
55069;SDS011;40967;52.070;8.596;2023-07-16T08:22:33;5.38;;;2.20;;
55069;SDS011;40967;52.070;8.596;2023-07-16T08:24:58;6.87;;;3.10;;
55069;SDS011;40967;52.070;8.596;2023-07-16T08:27:23;4.87;;;2.40;;
55069;SDS011;40967;52.070;8.596;2023-07-16T08:29:49;5.63;;;2.30;;
55069;SDS011;40967;52.070;8.596;2023-07-16T08:32:14;5.57;;;2.40;;
55069;SDS011;40967;52.070;8.596;2023-07-16T08:34:39;7.07;;;3.17;;
55069;SDS011;40967;52.070;8.596;2023-07-16T08:37:05;5.50;;;2.50;;
55069;SDS011;40967;52.070;8.596;2023-07-16T08:39:30;5.32;;;2.45;;
55069;SDS011;40967;52.070;8.596;2023-07-16T08:41:56;6.20;;;2.45;;
55069;SDS011;40967;52.070;8.596;2023-07-16T08:44:21;6.53;;;2.80;;
55069;SDS011;40967;52.070;8.596;2023-07-16T08:46:48;4.00;;;2.15;;
55069;SDS011;40967;52.070;8.596;2023-07-16T08:49:13;4.87;;;2.20;;
55069;SDS011;40967;52.070;8.596;2023-07-16T08:51:41;7.53;;;2.63;;
55069;SDS011;40967;52.070;8.596;2023-07-16T08:54:08;4.80;;;2.40;;
55069;SDS011;40967;52.070;8.596;2023-07-16T08:56:33;6.45;;;2.60;;
55069;SDS011;40967;52.070;8.596;2023-07-16T08:58:59;7.45;;;3.10;;
55069;SDS011;40967;52.070;8.596;2023-07-16T09:01:25;6.20;;;2.33;;
55069;SDS011;40967;52.070;8.596;2023-07-16T09:03:50;4.80;;;2.30;;
55069;SDS011;40967;52.070;8.596;2023-07-16T09:06:16;5.73;;;2.63;;
55069;SDS011;40967;52.070;8.596;2023-07-16T09:08:41;5.80;;;2.87;;
55069;SDS011;40967;52.070;8.596;2023-07-16T09:11:10;5.57;;;2.23;;
55069;SDS011;40967;52.070;8.596;2023-07-16T09:13:37;6.10;;;2.20;;
55069;SDS011;40967;52.070;8.596;2023-07-16T09:16:02;6.30;;;2.70;;
55069;SDS011;40967;52.070;8.596;2023-07-16T09:18:28;4.20;;;2.00;;
55069;SDS011;40967;52.070;8.596;2023-07-16T09:23:27;5.60;;;1.80;;
55069;SDS011;40967;52.070;8.596;2023-07-16T09:25:55;5.00;;;2.10;;
55069;SDS011;40967;52.070;8.596;2023-07-16T09:28:20;5.77;;;2.80;;
55069;SDS011;40967;52.070;8.596;2023-07-16T09:30:46;5.23;;;2.50;;
55069;SDS011;40967;52.070;8.596;2023-07-16T09:35:41;4.18;;;2.00;;
55069;SDS011;40967;52.070;8.596;2023-07-16T09:38:08;4.13;;;1.85;;
55069;SDS011;40967;52.070;8.596;2023-07-16T09:40:35;4.72;;;1.95;;
55069;SDS011;40967;52.070;8.596;2023-07-16T09:43:06;4.72;;;1.70;;
55069;SDS011;40967;52.070;8.596;2023-07-16T09:45:31;3.72;;;1.50;;
55069;SDS011;40967;52.070;8.596;2023-07-16T09:47:57;5.63;;;2.00;;
55069;SDS011;40967;52.070;8.596;2023-07-16T09:50:32;4.60;;;2.10;;
55069;SDS011;40967;52.070;8.596;2023-07-16T09:52:59;7.90;;;2.70;;
55069;SDS011;40967;52.070;8.596;2023-07-16T09:55:24;9.30;;;2.50;;
55069;SDS011;40967;52.070;8.596;2023-07-16T09:57:53;4.47;;;2.00;;
55069;SDS011;40967;52.070;8.596;2023-07-16T10:00:21;4.18;;;1.95;;
55069;SDS011;40967;52.070;8.596;2023-07-16T10:02:49;2.75;;;1.60;;
55069;SDS011;40967;52.070;8.596;2023-07-16T10:07:52;4.40;;;1.90;;
55069;SDS011;40967;52.070;8.596;2023-07-16T10:10:40;4.88;;;2.00;;
55069;SDS011;40967;52.070;8.596;2023-07-16T10:13:07;3.65;;;2.00;;
55069;SDS011;40967;52.070;8.596;2023-07-16T10:15:35;3.92;;;1.92;;
55069;SDS011;40967;52.070;8.596;2023-07-16T10:18:00;4.17;;;1.70;;
55069;SDS011;40967;52.070;8.596;2023-07-16T10:22:58;4.80;;;2.17;;
55069;SDS011;40967;52.070;8.596;2023-07-16T10:25:36;5.50;;;2.20;;
55069;SDS011;40967;52.070;8.596;2023-07-16T10:28:01;3.37;;;1.60;;
55069;SDS011;40967;52.070;8.596;2023-07-16T10:30:26;5.43;;;2.20;;
55069;SDS011;40967;52.070;8.596;2023-07-16T10:32:52;4.07;;;1.90;;
55069;SDS011;40967;52.070;8.596;2023-07-16T10:35:18;3.60;;;1.90;;
55069;SDS011;40967;52.070;8.596;2023-07-16T10:37:43;4.15;;;1.83;;
55069;SDS011;40967;52.070;8.596;2023-07-16T10:40:12;4.53;;;1.77;;
55069;SDS011;40967;52.070;8.596;2023-07-16T10:42:40;5.68;;;2.00;;
55069;SDS011;40967;52.070;8.596;2023-07-16T10:45:06;2.83;;;1.60;;
55069;SDS011;40967;52.070;8.596;2023-07-16T10:47:33;4.50;;;2.13;;
55069;SDS011;40967;52.070;8.596;2023-07-16T10:50:05;3.03;;;1.50;;
55069;SDS011;40967;52.070;8.596;2023-07-16T10:52:33;3.65;;;1.70;;
55069;SDS011;40967;52.070;8.596;2023-07-16T10:55:00;3.72;;;1.80;;
55069;SDS011;40967;52.070;8.596;2023-07-16T10:57:25;3.77;;;1.90;;
55069;SDS011;40967;52.070;8.596;2023-07-16T10:59:51;4.13;;;2.10;;
55069;SDS011;40967;52.070;8.596;2023-07-16T11:02:18;4.45;;;1.85;;
55069;SDS011;40967;52.070;8.596;2023-07-16T11:04:44;4.28;;;1.90;;
55069;SDS011;40967;52.070;8.596;2023-07-16T11:07:11;3.47;;;1.53;;
55069;SDS011;40967;52.070;8.596;2023-07-16T11:09:41;5.00;;;2.45;;
55069;SDS011;40967;52.070;8.596;2023-07-16T11:12:08;4.40;;;2.25;;
55069;SDS011;40967;52.070;8.596;2023-07-16T11:14:38;4.53;;;1.88;;
55069;SDS011;40967;52.070;8.596;2023-07-16T11:17:07;5.00;;;2.03;;
55069;SDS011;40967;52.070;8.596;2023-07-16T11:19:36;4.45;;;2.05;;
55069;SDS011;40967;52.070;8.596;2023-07-16T11:22:02;3.93;;;1.70;;
55069;SDS011;40967;52.070;8.596;2023-07-16T11:24:28;3.83;;;1.77;;
55069;SDS011;40967;52.070;8.596;2023-07-16T11:27:01;3.85;;;1.80;;
55069;SDS011;40967;52.070;8.596;2023-07-16T11:29:26;3.27;;;1.63;;
55069;SDS011;40967;52.070;8.596;2023-07-16T11:31:59;3.53;;;1.70;;
55069;SDS011;40967;52.070;8.596;2023-07-16T11:34:25;4.97;;;1.90;;
55069;SDS011;40967;52.070;8.596;2023-07-16T11:36:50;5.30;;;2.30;;
55069;SDS011;40967;52.070;8.596;2023-07-16T11:39:15;3.22;;;1.70;;
55069;SDS011;40967;52.070;8.596;2023-07-16T11:41:41;3.93;;;1.57;;
55069;SDS011;40967;52.070;8.596;2023-07-16T11:44:10;3.10;;;1.40;;
55069;SDS011;40967;52.070;8.596;2023-07-16T11:46:35;4.72;;;1.90;;
55069;SDS011;40967;52.070;8.596;2023-07-16T11:49:01;3.53;;;1.63;;
55069;SDS011;40967;52.070;8.596;2023-07-16T11:51:27;4.40;;;1.83;;
55069;SDS011;40967;52.070;8.596;2023-07-16T11:53:52;3.70;;;1.57;;
55069;SDS011;40967;52.070;8.596;2023-07-16T11:56:19;2.83;;;1.38;;
55069;SDS011;40967;52.070;8.596;2023-07-16T11:58:44;3.97;;;2.00;;
55069;SDS011;40967;52.070;8.596;2023-07-16T12:01:09;6.47;;;2.53;;
55069;SDS011;40967;52.070;8.596;2023-07-16T12:03:35;4.68;;;2.17;;
55069;SDS011;40967;52.070;8.596;2023-07-16T12:06:00;3.80;;;1.80;;
55069;SDS011;40967;52.070;8.596;2023-07-16T12:08:25;3.47;;;2.00;;
55069;SDS011;40967;52.070;8.596;2023-07-16T12:10:51;3.23;;;1.30;;
55069;SDS011;40967;52.070;8.596;2023-07-16T12:13:16;4.00;;;2.00;;
55069;SDS011;40967;52.070;8.596;2023-07-16T12:15:41;3.20;;;1.50;;
55069;SDS011;40967;52.070;8.596;2023-07-16T12:18:07;3.30;;;1.60;;
55069;SDS011;40967;52.070;8.596;2023-07-16T12:20:33;2.73;;;1.30;;
55069;SDS011;40967;52.070;8.596;2023-07-16T12:22:59;3.05;;;1.50;;
55069;SDS011;40967;52.070;8.596;2023-07-16T12:25:24;3.87;;;1.60;;
55069;SDS011;40967;52.070;8.596;2023-07-16T12:27:49;2.60;;;1.30;;
55069;SDS011;40967;52.070;8.596;2023-07-16T12:30:15;2.43;;;1.10;;
55069;SDS011;40967;52.070;8.596;2023-07-16T12:32:40;2.83;;;1.10;;
55069;SDS011;40967;52.070;8.596;2023-07-16T12:35:05;3.03;;;1.50;;
55069;SDS011;40967;52.070;8.596;2023-07-16T12:37:31;3.90;;;1.57;;
55069;SDS011;40967;52.070;8.596;2023-07-16T12:39:56;3.00;;;1.40;;
55069;SDS011;40967;52.070;8.596;2023-07-16T12:42:21;3.80;;;1.80;;
55069;SDS011;40967;52.070;8.596;2023-07-16T12:44:47;3.87;;;1.40;;
55069;SDS011;40967;52.070;8.596;2023-07-16T12:47:14;2.65;;;1.20;;
55069;SDS011;40967;52.070;8.596;2023-07-16T12:49:39;3.17;;;1.60;;
55069;SDS011;40967;52.070;8.596;2023-07-16T12:52:05;3.37;;;1.40;;
55069;SDS011;40967;52.070;8.596;2023-07-16T12:54:30;3.63;;;1.60;;
55069;SDS011;40967;52.070;8.596;2023-07-16T12:56:58;2.63;;;1.20;;
55069;SDS011;40967;52.070;8.596;2023-07-16T12:59:24;3.20;;;1.60;;
55069;SDS011;40967;52.070;8.596;2023-07-16T13:01:52;4.00;;;1.60;;
55069;SDS011;40967;52.070;8.596;2023-07-16T13:04:17;4.00;;;1.70;;
55069;SDS011;40967;52.070;8.596;2023-07-16T13:06:42;2.80;;;1.20;;
55069;SDS011;40967;52.070;8.596;2023-07-16T13:09:12;4.72;;;2.20;;
55069;SDS011;40967;52.070;8.596;2023-07-16T13:11:37;2.95;;;1.58;;
55069;SDS011;40967;52.070;8.596;2023-07-16T13:14:03;4.07;;;1.80;;
55069;SDS011;40967;52.070;8.596;2023-07-16T13:16:28;5.33;;;2.13;;
55069;SDS011;40967;52.070;8.596;2023-07-16T13:18:53;3.40;;;1.53;;
55069;SDS011;40967;52.070;8.596;2023-07-16T13:21:18;4.23;;;1.90;;
55069;SDS011;40967;52.070;8.596;2023-07-16T13:23:44;3.70;;;1.73;;
55069;SDS011;40967;52.070;8.596;2023-07-16T13:26:09;3.70;;;1.63;;
55069;SDS011;40967;52.070;8.596;2023-07-16T13:28:34;4.90;;;2.20;;
55069;SDS011;40967;52.070;8.596;2023-07-16T13:31:00;4.43;;;1.83;;
55069;SDS011;40967;52.070;8.596;2023-07-16T13:33:25;3.93;;;1.47;;
55069;SDS011;40967;52.070;8.596;2023-07-16T13:35:51;3.07;;;1.50;;
55069;SDS011;40967;52.070;8.596;2023-07-16T13:38:16;4.32;;;1.70;;
55069;SDS011;40967;52.070;8.596;2023-07-16T13:40:41;3.08;;;1.40;;
55069;SDS011;40967;52.070;8.596;2023-07-16T13:43:07;2.17;;;1.20;;
55069;SDS011;40967;52.070;8.596;2023-07-16T13:45:33;3.50;;;1.60;;
55069;SDS011;40967;52.070;8.596;2023-07-16T13:47:58;4.82;;;1.60;;
55069;SDS011;40967;52.070;8.596;2023-07-16T13:50:24;3.03;;;1.60;;
55069;SDS011;40967;52.070;8.596;2023-07-16T13:52:49;2.70;;;1.20;;
55069;SDS011;40967;52.070;8.596;2023-07-16T13:55:17;4.00;;;1.70;;
55069;SDS011;40967;52.070;8.596;2023-07-16T13:57:42;3.00;;;1.47;;
55069;SDS011;40967;52.070;8.596;2023-07-16T14:00:08;4.80;;;2.10;;
55069;SDS011;40967;52.070;8.596;2023-07-16T14:02:36;4.03;;;1.80;;
55069;SDS011;40967;52.070;8.596;2023-07-16T14:05:02;4.78;;;1.60;;
55069;SDS011;40967;52.070;8.596;2023-07-16T14:07:27;3.50;;;1.40;;
55069;SDS011;40967;52.070;8.596;2023-07-16T14:09:53;3.75;;;1.65;;
55069;SDS011;40967;52.070;8.596;2023-07-16T14:12:19;3.90;;;1.50;;
55069;SDS011;40967;52.070;8.596;2023-07-16T14:14:44;4.07;;;1.60;;
55069;SDS011;40967;52.070;8.596;2023-07-16T14:17:09;5.60;;;1.77;;
55069;SDS011;40967;52.070;8.596;2023-07-16T14:19:35;4.22;;;1.75;;
55069;SDS011;40967;52.070;8.596;2023-07-16T14:22:01;3.50;;;1.80;;
55069;SDS011;40967;52.070;8.596;2023-07-16T14:24:26;3.07;;;1.70;;
55069;SDS011;40967;52.070;8.596;2023-07-16T14:26:52;3.85;;;1.55;;
55069;SDS011;40967;52.070;8.596;2023-07-16T14:29:17;4.30;;;1.90;;
55069;SDS011;40967;52.070;8.596;2023-07-16T14:31:42;3.93;;;1.60;;
55069;SDS011;40967;52.070;8.596;2023-07-16T14:34:08;2.93;;;1.30;;
55069;SDS011;40967;52.070;8.596;2023-07-16T14:36:33;2.43;;;1.10;;
55069;SDS011;40967;52.070;8.596;2023-07-16T14:38:58;4.37;;;1.57;;
55069;SDS011;40967;52.070;8.596;2023-07-16T14:41:24;4.00;;;1.80;;
55069;SDS011;40967;52.070;8.596;2023-07-16T14:43:49;5.17;;;1.83;;
55069;SDS011;40967;52.070;8.596;2023-07-16T14:46:15;4.50;;;1.70;;
55069;SDS011;40967;52.070;8.596;2023-07-16T14:48:44;4.10;;;1.90;;
55069;SDS011;40967;52.070;8.596;2023-07-16T14:51:12;4.63;;;1.80;;
55069;SDS011;40967;52.070;8.596;2023-07-16T14:53:39;3.70;;;1.67;;
55069;SDS011;40967;52.070;8.596;2023-07-16T14:56:05;2.60;;;1.40;;